Time;durP1;ratioP1;P1;durP2;ratioP2;P2;SDS_P1;SDS_P2;PMS_P1;PMS_P2;Temp;Humidity;BMP_temperature;BMP_pressure;BME280_temperature;BME280_humidity;BME280_pressure;Samples;Min_cycle;Max_cycle;Signal;HPM_P1;HPM_P2
2022/04/17 00:00:10;;;;;;;8.47;4.93;;;;;;;16.95;34.73;102891.59;5075368;28;20700;-56
2022/04/17 00:02:37;;;;;;;8.93;5.35;;;;;;;17.01;34.60;102885.44;5073159;28;20033;-58
2022/04/17 00:05:07;;;;;;;8.73;5.50;;;;;;;16.85;34.62;102893.75;5073250;28;20104;-59
2022/04/17 00:07:33;;;;;;;11.93;5.65;;;;;;;16.86;34.03;102898.13;5064059;28;20037;-56
2022/04/17 00:09:59;;;;;;;12.65;6.07;;;;;;;16.81;34.39;102889.72;5073033;28;20092;-59
2022/04/17 00:12:27;;;;;;;14.13;5.75;;;;;;;16.79;34.01;102900.72;5073327;28;20041;-58
2022/04/17 00:14:54;;;;;;;8.15;5.00;;;;;;;16.88;33.69;102896.88;5072883;28;20033;-58
2022/04/17 00:17:20;;;;;;;11.25;5.25;;;;;;;16.87;33.48;102897.09;5071747;28;20052;-57
2022/04/17 00:19:46;;;;;;;;;;;;;;;16.94;33.73;102898.00;5073672;28;20029;-59
2022/04/17 00:22:15;;;;;;;8.57;5.40;;;;;;;16.84;33.93;102902.84;5071376;28;19917;-59
2022/04/17 00:24:42;;;;;;;12.63;5.97;;;;;;;16.82;34.21;102899.50;5061421;28;20044;-59
2022/04/17 00:27:08;;;;;;;9.80;5.07;;;;;;;16.87;33.77;102897.09;5069819;28;20044;-59
2022/04/17 00:29:35;;;;;;;11.13;5.68;;;;;;;16.81;33.91;102897.81;5070653;28;20033;-58
2022/04/17 00:32:00;;;;;;;14.18;6.43;;;;;;;16.79;33.84;102892.63;5062997;28;20043;-56
2022/04/17 00:34:26;;;;;;;13.77;5.30;;;;;;;16.66;34.20;102897.84;5070639;28;20033;-58
2022/04/17 00:36:52;;;;;;;10.38;5.97;;;;;;;16.25;35.48;102901.78;5068579;28;20037;-58
2022/04/17 00:39:18;;;;;;;13.82;6.53;;;;;;;16.57;35.47;102902.47;5072680;28;20033;-58
2022/04/17 00:41:46;;;;;;;10.53;6.10;;;;;;;16.49;36.19;102906.94;5060566;28;20058;-58
2022/04/17 00:44:14;;;;;;;10.93;6.95;;;;;;;16.44;36.38;102897.72;5063849;28;20033;-59
2022/04/17 00:46:40;;;;;;;13.50;7.10;;;;;;;16.28;36.56;102898.72;5065369;28;20048;-59
2022/04/17 00:49:09;;;;;;;12.20;6.03;;;;;;;16.37;37.04;102896.78;5067081;28;20067;-58
2022/04/17 00:51:37;;;;;;;15.35;6.28;;;;;;;16.32;37.20;102897.34;5067519;28;20041;-57
2022/04/17 00:54:06;;;;;;;11.15;6.28;;;;;;;16.23;37.12;102890.34;5068603;28;20048;-58
2022/04/17 00:56:32;;;;;;;10.60;6.43;;;;;;;16.20;37.33;102892.38;5072312;28;20037;-57
2022/04/17 00:58:57;;;;;;;14.17;6.83;;;;;;;16.09;37.44;102894.69;5069680;28;20079;-59
2022/04/17 01:01:24;;;;;;;11.35;6.57;;;;;;;15.90;37.83;102892.28;5075771;28;20273;-58
2022/04/17 01:03:50;;;;;;;12.87;6.17;;;;;;;16.02;37.65;102895.41;5076264;28;20033;-57
2022/04/17 01:06:16;;;;;;;14.10;7.53;;;;;;;15.96;37.94;102890.72;5076313;28;20043;-58
2022/04/17 01:08:43;;;;;;;14.25;6.88;;;;;;;15.96;38.14;102895.31;5076052;28;20051;-56
2022/04/17 01:11:09;;;;;;;11.00;6.22;;;;;;;16.31;37.46;102892.94;5069211;28;20030;-59
2022/04/17 01:13:38;;;;;;;12.45;6.30;;;;;;;16.58;36.90;102894.19;5075240;28;20092;-57
2022/04/17 01:16:05;;;;;;;8.85;5.38;;;;;;;16.38;37.39;102899.31;5068653;28;20041;-56
2022/04/17 01:18:59;;;;;;;14.63;6.85;;;;;;;16.31;37.34;102898.34;5075620;28;20075;-58
2022/04/17 01:21:26;;;;;;;11.00;5.60;;;;;;;16.28;37.65;102896.03;5075672;28;20043;-57
2022/04/17 01:29:21;;;;;;;12.82;7.45;;;;;;;16.25;38.01;102899.09;5072978;28;20045;-58
2022/04/17 01:31:47;;;;;;;18.42;6.55;;;;;;;16.18;38.04;102894.44;5069108;28;20051;-56
2022/04/17 01:34:16;;;;;;;12.77;6.00;;;;;;;16.18;38.15;102889.03;5074920;28;20033;-57
2022/04/17 01:36:44;;;;;;;10.80;6.32;;;;;;;15.46;39.44;102887.53;5067610;28;20025;-58
2022/04/17 01:39:09;;;;;;;11.65;5.93;;;;;;;15.23;39.58;102888.34;5067899;28;20037;-57
2022/04/17 01:41:36;;;;;;;14.13;6.20;;;;;;;15.20;39.98;102885.97;5075278;28;20132;-58
2022/04/17 01:44:02;;;;;;;12.63;6.72;;;;;;;15.29;39.82;102878.69;5075163;28;20037;-58
2022/04/17 01:46:27;;;;;;;12.00;7.05;;;;;;;15.23;40.22;102882.94;5071287;28;20063;-58
2022/04/17 01:48:54;;;;;;;11.53;6.63;;;;;;;15.24;40.44;102881.94;5068831;28;20042;-58
2022/04/17 01:51:19;;;;;;;15.65;6.68;;;;;;;15.25;40.38;102889.00;5075299;28;20116;-58
2022/04/17 01:53:46;;;;;;;13.13;6.67;;;;;;;15.23;40.59;102880.25;5075452;28;20098;-58
2022/04/17 01:56:11;;;;;;;12.90;7.25;;;;;;;15.75;40.05;102880.59;5069134;28;20052;-55
2022/04/17 01:58:37;;;;;;;11.17;6.60;;;;;;;15.21;40.89;102876.88;5069487;28;20040;-58
2022/04/17 02:01:03;;;;;;;21.45;7.15;;;;;;;15.18;41.22;102882.63;5068918;28;20033;-57
2022/04/17 02:03:29;;;;;;;13.07;7.10;;;;;;;15.14;41.57;102873.22;5074311;28;20060;-56
2022/04/17 02:05:55;;;;;;;15.47;7.40;;;;;;;15.12;41.70;102870.72;5068375;28;20041;-57
2022/04/17 02:08:21;;;;;;;14.00;7.33;;;;;;;14.96;42.33;102878.84;5075148;28;20033;-58
2022/04/17 02:10:46;;;;;;;12.02;6.60;;;;;;;15.19;42.07;102873.50;5074978;28;20048;-56
2022/04/17 02:13:12;;;;;;;9.50;6.70;;;;;;;15.00;42.89;102864.88;5075059;28;20037;-56
2022/04/17 02:15:37;;;;;;;16.07;7.43;;;;;;;14.94;43.52;102860.16;5067205;28;20032;-58
2022/04/17 02:18:03;;;;;;;14.02;6.78;;;;;;;14.88;43.97;102852.78;5073687;28;20480;-59
2022/04/17 02:20:28;;;;;;;13.23;7.47;;;;;;;14.86;44.28;102862.91;5065334;28;20071;-59
2022/04/17 02:22:54;;;;;;;11.83;6.83;;;;;;;14.82;43.62;102856.19;5074743;28;20045;-57
2022/04/17 02:25:20;;;;;;;12.17;7.17;;;;;;;14.77;42.94;102859.41;5074699;28;20071;-56
2022/04/17 02:27:46;;;;;;;17.73;7.97;;;;;;;14.80;41.96;102852.84;5075122;28;20029;-57
2022/04/17 02:30:11;;;;;;;13.10;8.03;;;;;;;14.88;40.62;102855.47;5068054;28;20274;-58
2022/04/17 02:32:37;;;;;;;17.70;8.32;;;;;;;14.80;40.14;102858.22;5074670;28;20064;-59
2022/04/17 02:35:02;;;;;;;15.47;6.93;;;;;;;14.79;39.93;102856.53;5067906;28;20040;-53
2022/04/17 02:37:28;;;;;;;14.97;7.63;;;;;;;14.87;39.25;102849.25;5073345;28;20037;-58
2022/04/17 02:39:56;;;;;;;16.63;7.18;;;;;;;14.84;38.89;102852.28;5062816;28;20063;-56
2022/04/17 02:42:21;;;;;;;16.35;8.13;;;;;;;14.85;38.78;102861.22;5072977;28;20048;-56
2022/04/17 02:44:46;;;;;;;14.53;8.37;;;;;;;14.85;38.30;102861.22;5073025;28;20039;-59
2022/04/17 02:49:56;;;;;;;13.60;7.72;;;;;;;14.85;38.03;102853.13;5073896;28;20266;-57
2022/04/17 02:52:21;;;;;;;13.10;7.73;;;;;;;14.79;37.81;102846.59;5074355;28;20037;-58
2022/04/17 02:54:47;;;;;;;15.33;8.20;;;;;;;14.64;37.94;102851.84;5072605;28;20293;-56
2022/04/17 02:57:12;;;;;;;15.27;8.40;;;;;;;14.75;37.92;102854.16;5062021;28;20048;-58
2022/04/17 02:59:38;;;;;;;15.77;8.18;;;;;;;14.90;37.40;102850.75;5073362;28;20036;-58
2022/04/17 03:07:34;;;;;;;16.08;7.38;;;;;;;14.82;37.38;102840.84;5072881;28;20036;-59
2022/04/17 03:09:59;;;;;;;15.57;7.53;;;;;;;14.81;37.38;102841.03;5073340;28;20071;-57
2022/04/17 03:12:25;;;;;;;14.85;8.07;;;;;;;14.81;37.59;102838.34;5071678;28;20037;-58
2022/04/17 03:14:51;;;;;;;15.10;8.03;;;;;;;14.80;37.61;102842.06;5073702;28;20049;-58
2022/04/17 03:17:16;;;;;;;18.23;7.53;;;;;;;14.73;37.80;102844.59;5069186;28;20042;-58
2022/04/17 03:19:42;;;;;;;12.63;7.68;;;;;;;14.72;38.12;102838.38;5059787;28;20052;-56
2022/04/17 03:22:07;;;;;;;15.97;7.47;;;;;;;14.67;38.41;102847.97;5069696;28;20063;-56
2022/04/17 03:24:32;;;;;;;14.93;7.83;;;;;;;14.62;38.77;102835.00;5070540;28;20105;-57
2022/04/17 03:26:58;;;;;;;14.77;7.90;;;;;;;14.57;38.73;102834.69;5067560;28;20204;-57
2022/04/17 03:29:24;;;;;;;14.02;6.93;;;;;;;14.44;38.92;102828.00;5073289;28;20044;-58
2022/04/17 03:31:49;;;;;;;16.03;7.77;;;;;;;14.55;38.56;102828.66;5059714;28;20059;-58
2022/04/17 03:34:15;;;;;;;15.03;7.30;;;;;;;14.59;38.52;102824.59;5062377;28;20033;-58
2022/04/17 03:36:41;;;;;;;14.10;7.40;;;;;;;14.47;37.99;102824.94;5068004;28;20040;-59
2022/04/17 03:39:07;;;;;;;14.53;8.03;;;;;;;14.51;37.78;102822.75;5074068;28;20048;-57
2022/04/17 03:41:34;;;;;;;15.70;8.60;;;;;;;14.75;37.42;102819.16;5073728;28;20067;-58
2022/04/17 03:44:02;;;;;;;12.73;7.18;;;;;;;14.55;37.43;102812.50;5071589;28;20033;-58
2022/04/17 03:46:28;;;;;;;15.88;7.57;;;;;;;14.40;37.86;102812.34;5067221;28;20063;-57
2022/04/17 03:48:54;;;;;;;22.95;7.88;;;;;;;14.56;37.78;102809.63;5072878;28;20037;-58
2022/04/17 03:51:19;;;;;;;14.70;7.65;;;;;;;14.51;37.34;102805.75;5070121;28;20051;-57
2022/04/17 03:53:45;;;;;;;15.60;8.07;;;;;;;14.45;37.49;102808.13;5064089;28;20063;-59
2022/04/17 03:56:11;;;;;;;17.50;7.40;;;;;;;14.41;37.53;102808.66;5073420;28;20037;-58
2022/04/17 03:58:36;;;;;;;14.40;7.40;;;;;;;14.37;37.62;102810.00;5070509;28;20029;-58
2022/04/17 04:01:02;;;;;;;13.70;6.73;;;;;;;14.41;38.07;102812.19;5073227;28;20312;-59
2022/04/17 04:03:28;;;;;;;14.88;8.27;;;;;;;14.36;38.06;102814.56;5072089;28;20044;-56
2022/04/17 04:05:53;;;;;;;11.05;7.13;;;;;;;14.32;38.03;102815.94;5058837;28;20036;-58
2022/04/17 04:08:19;;;;;;;13.27;6.83;;;;;;;14.21;38.60;102801.00;5068203;28;20105;-53
2022/04/17 04:10:44;;;;;;;15.27;7.55;;;;;;;14.23;38.59;102809.72;5060608;28;20052;-56
2022/04/17 04:13:10;;;;;;;18.20;7.27;;;;;;;14.22;38.13;102801.81;5064956;28;20041;-60
2022/04/17 04:15:36;;;;;;;13.10;7.17;;;;;;;14.17;38.56;102795.09;5071164;28;20057;-57
2022/04/17 04:18:01;;;;;;;15.18;7.32;;;;;;;14.17;38.78;102800.47;5067995;28;20036;-58
2022/04/17 04:20:27;;;;;;;16.97;7.87;;;;;;;14.09;38.67;102792.44;5066515;28;20059;-57
2022/04/17 04:22:55;;;;;;;11.97;7.40;;;;;;;14.31;38.41;102792.72;5065253;28;20068;-57
2022/04/17 04:25:20;;;;;;;16.80;7.75;;;;;;;14.32;38.31;102802.47;5066705;28;20026;-57
2022/04/17 04:30:30;;;;;;;20.15;7.68;;;;;;;14.23;38.34;102800.78;5074656;28;20036;-55
2022/04/17 04:32:57;;;;;;;15.37;8.20;;;;;;;14.17;38.35;102789.72;5059564;28;20052;-56
2022/04/17 04:35:23;;;;;;;;;;;;;;;14.24;38.46;102784.50;5074446;28;20043;-57
2022/04/17 04:37:49;;;;;;;14.45;7.20;;;;;;;14.41;38.29;102795.19;5076837;28;19916;-57
2022/04/17 04:40:15;;;;;;;19.90;8.18;;;;;;;14.33;38.50;102788.00;5076768;28;20025;-58
2022/04/17 04:42:41;;;;;;;14.97;7.57;;;;;;;14.24;38.56;102791.72;5075519;28;20037;-58
2022/04/17 04:47:51;;;;;;;13.25;7.22;;;;;;;14.01;39.20;102784.34;5069564;28;20037;-58
2022/04/17 04:50:17;;;;;;;13.43;7.77;;;;;;;13.96;39.21;102792.97;5070555;28;20045;-57
2022/04/17 04:52:43;;;;;;;12.93;6.70;;;;;;;14.16;38.93;102790.72;5068494;28;20059;-57
2022/04/17 04:55:08;;;;;;;14.70;6.80;;;;;;;14.25;38.52;102793.38;5071126;28;20068;-58
2022/04/17 04:57:37;;;;;;;18.97;8.07;;;;;;;14.12;38.94;102792.09;5075127;28;20090;-58
2022/04/17 05:00:07;;;;;;;14.50;7.53;;;;;;;14.33;38.75;102788.81;5070871;28;20034;-58
2022/04/17 05:02:37;;;;;;;12.57;6.40;;;;;;;14.12;38.94;102792.09;5072907;28;20060;-58
2022/04/17 05:05:06;;;;;;;15.35;7.90;;;;;;;13.99;39.23;102794.44;5070546;28;20032;-59
2022/04/17 05:07:31;;;;;;;15.45;7.85;;;;;;;14.12;39.35;102791.22;5076398;28;20040;-55
2022/04/17 05:09:57;;;;;;;13.47;6.90;;;;;;;14.12;39.16;102791.22;5075984;28;20059;-57
2022/04/17 05:12:22;;;;;;;18.77;7.77;;;;;;;14.13;39.17;102791.06;5076172;28;20044;-55
2022/04/17 05:14:48;;;;;;;13.17;6.67;;;;;;;14.16;39.12;102793.41;5076088;28;20040;-57
2022/04/17 05:17:14;;;;;;;14.15;7.70;;;;;;;14.07;38.95;102796.28;5075681;28;20043;-58
2022/04/17 05:19:39;;;;;;;20.60;7.63;;;;;;;14.18;38.99;102791.38;5073698;28;20049;-58
2022/04/17 05:22:10;;;;;;;12.73;7.47;;;;;;;14.11;39.07;102794.94;5066763;28;20271;-57
2022/04/17 05:24:38;;;;;;;16.92;7.68;;;;;;;14.03;39.17;102793.09;5068861;28;20030;-58
2022/04/17 05:27:04;;;;;;;15.98;8.43;;;;;;;14.13;39.27;102791.06;5069662;28;20037;-56
2022/04/17 05:29:30;;;;;;;14.07;7.63;;;;;;;14.14;39.14;102792.75;5070662;28;20029;-57
2022/04/17 05:31:55;;;;;;;14.80;8.23;;;;;;;14.17;39.79;102783.47;5058734;28;20063;-58
2022/04/17 05:34:20;;;;;;;20.53;7.53;;;;;;;14.05;39.69;102786.53;5066560;28;20068;-58
2022/04/17 05:36:46;;;;;;;14.83;7.00;;;;;;;14.14;39.48;102784.69;5070596;28;20067;-56
2022/04/17 05:39:12;;;;;;;16.85;7.50;;;;;;;14.26;39.29;102793.22;5074308;28;20044;-56
2022/04/17 05:41:41;;;;;;;15.98;7.95;;;;;;;14.22;39.80;102783.81;5075075;28;20064;-56
2022/04/17 05:44:08;;;;;;;15.43;6.78;;;;;;;14.40;39.52;102780.91;5072310;28;20033;-56
2022/04/17 05:46:37;;;;;;;14.77;7.53;;;;;;;14.35;39.42;102785.97;5071844;28;20087;-58
2022/04/17 05:49:05;;;;;;;12.93;7.65;;;;;;;14.45;39.31;102781.22;5075446;28;20266;-58
2022/04/17 05:51:32;;;;;;;15.68;7.55;;;;;;;14.32;39.05;102787.16;5076329;28;20041;-56
2022/04/17 05:53:59;;;;;;;14.73;7.75;;;;;;;14.42;39.25;102780.75;5075413;28;20080;-58
2022/04/17 05:56:25;;;;;;;13.95;8.25;;;;;;;14.42;39.10;102784.25;5068744;28;20055;-57
2022/04/17 05:58:51;;;;;;;12.43;7.22;;;;;;;14.59;38.96;102797.66;5073028;28;20790;-57
2022/04/17 06:01:16;;;;;;;13.23;7.00;;;;;;;14.60;39.18;102793.97;5069063;28;20083;-56
2022/04/17 06:03:42;;;;;;;14.40;7.33;;;;;;;14.64;38.80;102795.28;5074933;28;20045;-57
2022/04/17 06:06:07;;;;;;;10.87;7.00;;;;;;;14.55;38.67;102797.16;5075013;28;20028;-56
2022/04/17 06:08:33;;;;;;;16.30;7.73;;;;;;;14.63;38.70;102793.59;5075048;28;20277;-57
2022/04/17 06:10:59;;;;;;;13.55;6.97;;;;;;;14.54;38.93;102787.41;5075058;28;20075;-56
2022/04/17 06:13:25;;;;;;;11.77;7.57;;;;;;;14.23;39.22;102790.88;5068121;28;20044;-58
2022/04/17 06:15:50;;;;;;;13.32;7.75;;;;;;;14.58;39.02;102796.00;5074268;28;20273;-58
2022/04/17 06:18:16;;;;;;;14.63;7.20;;;;;;;14.81;38.78;102790.69;5068993;28;20040;-56
2022/04/17 06:20:42;;;;;;;12.63;7.27;;;;;;;14.70;39.18;102788.38;5068429;28;20033;-59
2022/04/17 06:23:07;;;;;;;12.67;6.87;;;;;;;14.69;39.31;102798.28;5074817;28;20278;-57
2022/04/17 06:25:33;;;;;;;11.13;6.28;;;;;;;14.95;38.83;102794.47;5073631;28;20033;-59
2022/04/17 06:27:59;;;;;;;12.60;7.07;;;;;;;14.75;39.03;102797.59;5062105;28;20043;-59
2022/04/17 06:30:25;;;;;;;12.50;7.40;;;;;;;15.13;38.22;102788.00;5066912;28;20297;-56
2022/04/17 06:32:50;;;;;;;13.82;6.57;;;;;;;14.94;38.68;102786.59;5063681;28;20109;-58
2022/04/17 06:35:17;;;;;;;11.50;6.70;;;;;;;14.82;38.99;102788.84;5062156;28;20036;-60
2022/04/17 06:37:46;;;;;;;13.25;6.65;;;;;;;15.34;38.30;102793.56;5060241;28;20072;-58
2022/04/17 06:40:14;;;;;;;11.30;6.75;;;;;;;14.79;39.04;102794.59;5065596;28;20092;-58
2022/04/17 06:42:39;;;;;;;11.43;5.95;;;;;;;15.08;39.43;102795.78;5061206;28;20052;-57
2022/04/17 06:45:05;;;;;;;13.53;7.00;;;;;;;15.23;39.24;102798.53;5063266;28;20067;-57
2022/04/17 06:47:31;;;;;;;11.40;6.80;;;;;;;15.14;39.35;102804.00;5066442;28;20056;-58
2022/04/17 06:49:57;;;;;;;;;;;;;;;15.46;39.25;102795.88;5060041;28;20438;-58
2022/04/17 06:52:22;;;;;;;13.00;7.93;;;;;;;15.53;39.40;102794.13;5064476;28;19912;-58
2022/04/17 06:54:48;;;;;;;13.10;7.10;;;;;;;15.76;39.09;102801.34;5057975;28;20032;-55
2022/04/17 06:57:13;;;;;;;12.00;7.70;;;;;;;15.72;39.15;102791.94;5066818;28;20292;-60
2022/04/17 06:59:39;;;;;;;14.05;6.45;;;;;;;15.48;39.51;102793.81;5060496;28;20033;-58
2022/04/17 07:02:06;;;;;;;9.82;6.50;;;;;;;15.65;39.43;102791.81;5060324;28;20029;-59
2022/04/17 07:04:31;;;;;;;11.32;7.10;;;;;;;16.02;39.44;102782.06;5061671;28;20051;-58
2022/04/17 07:06:56;;;;;;;11.40;7.27;;;;;;;16.04;39.22;102780.03;5063026;28;20033;-59
2022/04/17 07:09:22;;;;;;;11.57;6.43;;;;;;;15.84;39.47;102790.47;5058056;28;20152;-57
2022/04/17 07:11:47;;;;;;;13.17;8.03;;;;;;;16.13;39.31;102785.34;5057973;28;20064;-57
2022/04/17 07:14:14;;;;;;;10.93;6.03;;;;;;;16.05;39.09;102780.84;5058526;28;20104;-55
2022/04/17 07:16:42;;;;;;;11.05;6.63;;;;;;;15.89;39.03;102784.56;5058567;28;20096;-59
2022/04/17 07:19:08;;;;;;;10.00;5.25;;;;;;;15.39;39.01;102784.09;5063988;28;20033;-56
2022/04/17 07:21:33;;;;;;;10.27;5.73;;;;;;;15.48;38.33;102774.94;5059989;28;20060;-56
2022/04/17 07:23:59;;;;;;;10.43;5.80;;;;;;;15.86;38.38;102766.84;5065972;28;20037;-57
2022/04/17 07:26:24;;;;;;;9.77;5.90;;;;;;;15.66;38.23;102771.06;5060047;28;20298;-57
2022/04/17 07:28:50;;;;;;;11.07;7.13;;;;;;;16.06;38.55;102769.03;5060785;28;20032;-58
2022/04/17 07:31:15;;;;;;;9.23;5.97;;;;;;;16.31;38.11;102769.63;5059081;28;20048;-58
2022/04/17 07:33:41;;;;;;;9.93;5.70;;;;;;;16.22;37.55;102769.88;5062059;28;20120;-58
2022/04/17 07:36:06;;;;;;;9.10;4.97;;;;;;;16.08;37.14;102772.38;5055740;28;20037;-58
2022/04/17 07:38:31;;;;;;;10.00;5.63;;;;;;;16.38;37.30;102777.81;5062633;28;20033;-58
2022/04/17 07:40:57;;;;;;;15.33;7.67;;;;;;;16.76;36.54;102769.53;5060332;28;20029;-58
2022/04/17 07:43:22;;;;;;;9.33;5.17;;;;;;;16.56;36.79;102763.91;5070876;28;20033;-59
2022/04/17 07:45:48;;;;;;;9.63;5.47;;;;;;;16.12;37.28;102767.47;5059657;28;20033;-59
2022/04/17 07:48:13;;;;;;;11.80;5.77;;;;;;;15.71;38.26;102764.13;5060920;28;20083;-57
2022/04/17 07:50:39;;;;;;;12.40;6.67;;;;;;;16.53;37.32;102756.19;5057187;28;20037;-59
2022/04/17 07:53:04;;;;;;;10.33;5.93;;;;;;;16.89;36.87;102754.53;5063090;28;20056;-58
2022/04/17 07:55:30;;;;;;;10.20;5.25;;;;;;;17.03;36.79;102764.47;5071330;28;20037;-57
2022/04/17 08:00:23;;;;;;;10.82;5.68;;;;;;;17.19;36.73;102752.59;5060996;28;20053;-57
2022/04/17 08:03:10;;;;;;;17.35;9.02;;;;;;;17.64;36.25;102746.06;5061245;28;20033;-54
2022/04/17 08:05:40;;;;;;;8.35;5.38;;;;;;;17.39;36.52;102743.78;5072980;28;20037;-58
2022/04/17 08:08:08;;;;;;;13.35;7.15;;;;;;;17.65;36.44;102749.63;5076310;28;20029;-56
2022/04/17 08:10:35;;;;;;;9.02;5.05;;;;;;;17.22;36.54;102751.34;5073364;28;20045;-57
2022/04/17 08:13:00;;;;;;;9.47;5.30;;;;;;;17.16;36.77;102736.72;5076456;28;20040;-55
2022/04/17 08:15:26;;;;;;;15.15;8.15;;;;;;;17.94;36.66;102748.59;5067089;28;20342;-55
2022/04/17 08:17:52;;;;;;;8.33;4.70;;;;;;;17.36;36.41;102743.38;5069242;28;20087;-58
2022/04/17 08:20:18;;;;;;;11.43;5.95;;;;;;;17.96;35.48;102746.53;5070047;28;20040;-57
2022/04/17 08:22:44;;;;;;;9.90;5.28;;;;;;;18.04;35.08;102749.09;5076397;28;20037;-60
2022/04/17 08:25:10;;;;;;;8.15;4.60;;;;;;;17.71;35.53;102746.97;5074982;28;20108;-55
2022/04/17 08:28:05;;;;;;;9.40;5.07;;;;;;;18.04;35.37;102745.56;5067540;28;20033;-59
2022/04/17 08:30:33;;;;;;;11.38;6.28;;;;;;;18.24;34.86;102744.84;5060141;28;20048;-56
2022/04/17 08:33:05;;;;;;;8.52;5.93;;;;;;;18.00;35.58;102741.56;5075398;28;20064;-59
2022/04/17 08:35:30;;;;;;;10.05;5.38;;;;;;;17.63;35.59;102742.56;5075488;28;20567;-58
2022/04/17 08:38:00;;;;;;;8.98;5.78;;;;;;;18.32;34.67;102731.13;5069467;28;20037;-59
2022/04/17 08:40:28;;;;;;;12.82;5.80;;;;;;;18.61;34.66;102737.28;5075613;28;20048;-56
2022/04/17 08:42:55;;;;;;;9.07;5.25;;;;;;;19.00;33.81;102743.88;5068870;28;20042;-56
2022/04/17 08:45:22;;;;;;;8.07;5.07;;;;;;;19.22;33.67;102743.69;5075031;28;20036;-57
2022/04/17 08:47:48;;;;;;;8.85;5.40;;;;;;;19.24;34.06;102744.31;5074003;28;20041;-58
2022/04/17 08:50:17;;;;;;;8.87;5.60;;;;;;;18.84;33.56;102746.94;5069404;28;20032;-59
2022/04/17 08:52:47;;;;;;;11.45;5.25;;;;;;;18.99;33.84;102735.94;5067776;28;20263;-57
2022/04/17 08:55:13;;;;;;;11.65;5.50;;;;;;;19.50;33.91;102742.66;5074772;28;20029;-58
2022/04/17 08:57:39;;;;;;;10.75;5.00;;;;;;;20.10;32.83;102740.94;5075356;28;20048;-59
2022/04/17 09:00:08;;;;;;;7.50;4.97;;;;;;;20.18;32.32;102727.94;5075008;28;20037;-60
2022/04/17 09:02:35;;;;;;;7.53;5.03;;;;;;;19.97;32.29;102737.22;5073620;28;20152;-60
2022/04/17 09:05:15;;;;;;;9.65;5.05;;;;;;;20.34;32.20;102726.63;5067641;28;20309;-58
2022/04/17 09:08:04;;;;;;;11.37;6.63;;;;;;;20.87;31.92;102732.84;5072025;28;20032;-59
2022/04/17 09:10:33;;;;;;;20.83;9.53;;;;;;;21.53;30.57;102721.69;5064117;28;20265;-60
2022/04/17 09:13:01;;;;;;;21.40;9.70;;;;;;;21.78;30.60;102718.13;5060412;28;20346;-58
2022/04/17 09:15:33;;;;;;;8.63;5.40;;;;;;;22.09;29.77;102710.03;5067574;28;20281;-58
2022/04/17 09:17:59;;;;;;;20.70;12.10;;;;;;;22.41;29.08;102710.69;5066628;28;20282;-60
2022/04/17 09:20:27;;;;;;;7.90;4.35;;;;;;;22.77;28.72;102714.38;5069748;28;20282;-56
2022/04/17 09:22:55;;;;;;;8.50;4.73;;;;;;;23.74;27.75;102718.91;5075025;28;20048;-58
2022/04/17 09:25:28;;;;;;;5.57;3.90;;;;;;;23.58;27.15;102710.38;5073596;28;20273;-55
2022/04/17 09:28:05;;;;;;;10.87;5.47;;;;;;;25.01;26.54;102706.34;5072282;28;20025;-54
2022/04/17 09:30:45;;;;;;;6.70;4.20;;;;;;;25.68;24.43;102710.13;5063826;28;20037;-58
2022/04/17 09:33:17;;;;;;;7.63;4.07;;;;;;;26.23;24.64;102699.34;5069447;28;20063;-56
2022/04/17 09:35:55;;;;;;;8.53;3.23;;;;;;;26.64;22.97;102709.88;5073415;28;20029;-59
2022/04/17 09:38:26;;;;;;;7.43;4.13;;;;;;;27.39;22.56;102708.31;5066917;28;20104;-59
2022/04/17 09:40:51;;;;;;;5.60;3.83;;;;;;;28.30;21.62;102700.78;5059695;28;20101;-58
2022/04/17 09:43:18;;;;;;;5.68;3.55;;;;;;;28.94;21.05;102710.78;5060817;28;20111;-58
2022/04/17 09:45:57;;;;;;;4.90;3.73;;;;;;;29.07;21.42;102706.66;5058804;28;20064;-57
2022/04/17 09:48:23;;;;;;;5.87;3.67;;;;;;;28.29;20.90;102698.31;5064734;28;20097;-57
2022/04/17 09:50:48;;;;;;;6.10;3.58;;;;;;;29.09;20.14;102694.25;5069337;28;20037;-58
2022/04/17 09:53:30;;;;;;;7.82;3.67;;;;;;;30.14;19.87;102695.59;5062361;28;20049;-57
2022/04/17 09:56:11;;;;;;;6.00;3.53;;;;;;;31.05;19.32;102695.19;5063484;28;20052;-59
2022/04/17 09:58:42;;;;;;;5.67;3.60;;;;;;;30.58;18.39;102693.91;5063382;28;20045;-59
2022/04/17 10:01:08;;;;;;;5.47;3.33;;;;;;;30.68;19.03;102691.13;5065248;28;20043;-59
2022/04/17 10:03:38;;;;;;;;;;;;;;;31.96;19.05;102692.00;5063190;28;20041;-64
2022/04/17 10:06:05;;;;;;;5.20;3.50;;;;;;;31.65;18.10;102686.84;5068132;28;19927;-57
2022/04/17 10:08:32;;;;;;;10.17;3.83;;;;;;;31.52;18.06;102691.97;5074401;28;20033;-59
2022/04/17 10:10:57;;;;;;;6.07;3.73;;;;;;;31.63;18.56;102694.63;5074305;28;20044;-58
2022/04/17 10:13:23;;;;;;;;;;;;;;;32.47;17.70;102685.72;5074932;28;20102;-59
2022/04/17 10:15:51;;;;;;;10.03;4.50;;;;;;;32.49;17.89;102681.81;5071501;28;19912;-59
2022/04/17 10:18:21;;;;;;;15.30;9.47;;;;;;;33.81;17.24;102669.69;5062264;28;20048;-59
2022/04/17 10:20:48;;;;;;;9.63;5.20;;;;;;;32.72;17.48;102663.44;5062006;28;20025;-59
2022/04/17 10:23:15;;;;;;;5.97;4.07;;;;;;;33.84;17.56;102664.31;5068389;28;20037;-60
2022/04/17 10:25:42;;;;;;;5.68;3.85;;;;;;;34.49;16.53;102660.66;5068113;28;20056;-59
2022/04/17 10:28:09;;;;;;;6.47;3.55;;;;;;;34.56;16.44;102649.91;5065323;28;20348;-59
2022/04/17 10:31:00;;;;;;;8.45;3.50;;;;;;;35.26;16.02;102650.25;5072549;28;20123;-59
2022/04/17 10:33:42;;;;;;;6.47;3.97;;;;;;;35.50;15.73;102651.75;5069408;28;20045;-60
2022/04/17 10:36:27;;;;;;;7.53;3.58;;;;;;;34.71;15.79;102641.16;5069252;28;20029;-59
2022/04/17 10:39:22;;;;;;;6.22;3.50;;;;;;;34.49;16.53;102633.72;5072464;28;20059;-59
2022/04/17 10:41:48;;;;;;;13.00;3.92;;;;;;;35.19;15.33;102641.56;5067361;28;20033;-59
2022/04/17 10:44:15;;;;;;;7.07;3.35;;;;;;;35.06;15.33;102639.69;5070404;28;20050;-60
2022/04/17 10:46:51;;;;;;;6.80;3.47;;;;;;;35.96;14.90;102637.59;5067981;28;20049;-58
2022/04/17 10:49:20;;;;;;;7.53;3.92;;;;;;;35.74;16.07;102636.59;5064344;28;20039;-60
2022/04/17 10:51:54;;;;;;;7.57;4.13;;;;;;;36.63;15.08;102638.19;5070304;28;20040;-59
2022/04/17 10:54:20;;;;;;;8.02;3.47;;;;;;;36.59;15.30;102631.66;5065030;28;20102;-58
2022/04/17 10:56:54;;;;;;;6.18;3.70;;;;;;;37.22;14.39;102625.50;5060249;28;20033;-59
2022/04/17 10:59:21;;;;;;;6.10;3.20;;;;;;;37.52;13.69;102621.91;5065772;28;20053;-60
2022/04/17 11:01:52;;;;;;;5.43;3.45;;;;;;;37.70;14.16;102622.56;5061549;28;20097;-60
2022/04/17 11:04:23;;;;;;;5.30;3.50;;;;;;;37.24;14.07;102619.56;5067130;28;20043;-60
2022/04/17 11:06:56;;;;;;;5.05;3.20;;;;;;;37.84;13.79;102617.53;5068263;28;20025;-60
2022/04/17 11:09:23;;;;;;;5.82;3.35;;;;;;;38.30;13.63;102612.00;5066486;28;20426;-60
2022/04/17 11:11:50;;;;;;;4.97;2.97;;;;;;;38.55;12.95;102614.09;5071813;28;20472;-59
2022/04/17 11:14:23;;;;;;;5.82;2.90;;;;;;;38.28;13.56;102605.13;5067408;28;20063;-60
2022/04/17 11:16:59;;;;;;;4.18;3.08;;;;;;;37.74;13.47;102601.19;5063012;28;20029;-58
2022/04/17 11:19:29;;;;;;;3.85;2.70;;;;;;;37.15;13.18;102602.94;5070265;28;20052;-58
2022/04/17 11:22:02;;;;;;;5.30;2.30;;;;;;;36.56;13.96;102596.13;5066864;28;20048;-59
2022/04/17 11:24:30;;;;;;;2.85;2.22;;;;;;;37.09;13.37;102581.94;5067075;28;20037;-59
2022/04/17 11:26:56;;;;;;;3.40;2.20;;;;;;;36.36;13.16;102590.06;5067009;28;20037;-60
2022/04/17 11:29:47;;;;;;;3.67;2.22;;;;;;;35.41;13.54;102578.63;5063071;28;20060;-59
2022/04/17 11:32:18;;;;;;;4.60;2.30;;;;;;;34.86;13.42;102575.22;5063377;28;20047;-58
2022/04/17 11:34:54;;;;;;;4.03;2.28;;;;;;;35.10;13.31;102574.00;5066081;28;20040;-60
2022/04/17 11:37:19;;;;;;;;;;;;;;;35.68;13.42;102566.41;5067091;28;20035;-59
2022/04/17 11:39:45;;;;;;;5.53;2.70;;;;;;;35.07;13.99;102557.97;5064126;28;19948;-60
2022/04/17 11:42:12;;;;;;;3.80;2.35;;;;;;;37.18;13.21;102552.06;5059403;28;20037;-59
2022/04/17 11:44:42;;;;;;;7.50;2.65;;;;;;;36.95;12.83;102559.88;5061263;28;20132;-59